createdAt,value
2019-01-14T00:00:09.604Z,2.67
2019-01-14T00:02:41.771Z,2.30
2019-01-14T00:05:12.466Z,3.13
2019-01-14T00:07:43.472Z,3.93
2019-01-14T00:10:15.011Z,9.13
2019-01-14T00:12:45.543Z,8.50
2019-01-14T00:15:16.527Z,6.97
2019-01-14T00:17:46.991Z,6.87
2019-01-14T00:20:17.948Z,7.03
2019-01-14T00:22:48.808Z,7.67
2019-01-14T00:25:19.567Z,3.13
2019-01-14T00:27:50.350Z,6.17
2019-01-14T00:30:21.203Z,4.03
2019-01-14T00:32:51.844Z,3.23
2019-01-14T00:35:22.710Z,4.00
2019-01-14T00:37:53.376Z,5.23
2019-01-14T00:40:24.177Z,2.70
2019-01-14T00:42:55.028Z,2.63
2019-01-14T00:45:25.775Z,2.23
2019-01-14T00:47:57.721Z,3.40
2019-01-14T00:50:28.737Z,3.80
2019-01-14T00:52:59.646Z,4.63
2019-01-14T00:55:30.277Z,3.43
2019-01-14T00:58:00.761Z,4.47
2019-01-14T01:00:31.523Z,3.50
2019-01-14T01:03:02.340Z,4.13
2019-01-14T01:05:33.100Z,4.33
2019-01-14T01:08:03.607Z,2.83
2019-01-14T01:10:34.352Z,4.63
2019-01-14T01:13:05.048Z,5.10
2019-01-14T01:15:37.217Z,2.67
2019-01-14T01:18:08.173Z,1.60
2019-01-14T01:20:40.667Z,4.57
2019-01-14T01:23:11.674Z,1.97
2019-01-14T01:25:42.187Z,2.80
2019-01-14T01:28:14.492Z,3.60
2019-01-14T01:30:45.192Z,3.40
2019-01-14T01:33:15.823Z,3.37
2019-01-14T01:35:46.689Z,4.33
2019-01-14T01:38:17.254Z,2.93
2019-01-14T01:40:48.032Z,5.40
2019-01-14T01:43:19.080Z,2.43
2019-01-14T01:45:49.831Z,3.90
2019-01-14T01:48:20.598Z,3.90
2019-01-14T01:50:51.749Z,3.30
2019-01-14T01:53:22.524Z,5.27
2019-01-14T01:55:52.977Z,3.47
2019-01-14T01:58:23.714Z,3.30
2019-01-14T02:00:54.135Z,3.97
2019-01-14T02:03:24.770Z,3.53
2019-01-14T02:05:55.357Z,2.63
2019-01-14T02:08:26.171Z,5.73
2019-01-14T02:10:58.918Z,2.63
2019-01-14T02:13:29.510Z,4.57
2019-01-14T02:16:01.348Z,2.70
2019-01-14T02:18:32.254Z,4.07
2019-01-14T02:21:02.995Z,4.90
2019-01-14T02:23:33.676Z,2.83
2019-01-14T02:26:04.441Z,3.53
2019-01-14T02:28:36.026Z,3.00
2019-01-14T02:31:06.546Z,3.07
2019-01-14T02:33:37.222Z,3.17
2019-01-14T02:36:08.000Z,2.67
2019-01-14T02:38:39.734Z,4.17
2019-01-14T02:41:11.812Z,2.27
2019-01-14T02:43:42.331Z,4.17
2019-01-14T02:46:12.951Z,3.57
2019-01-14T02:48:43.554Z,2.57
2019-01-14T02:51:15.090Z,3.80
2019-01-14T02:53:45.788Z,2.57
2019-01-14T02:56:16.624Z,3.03
2019-01-14T02:58:47.409Z,3.10
2019-01-14T03:01:17.991Z,3.77
2019-01-14T03:03:48.586Z,5.63
2019-01-14T03:06:19.226Z,4.23
2019-01-14T03:08:49.967Z,5.40
2019-01-14T03:11:20.545Z,4.37
2019-01-14T03:13:51.371Z,4.50
2019-01-14T03:16:21.991Z,2.50
2019-01-14T03:18:52.858Z,5.17
2019-01-14T03:21:23.362Z,4.40
2019-01-14T03:23:54.125Z,2.30
2019-01-14T03:26:24.741Z,7.17
2019-01-14T03:28:55.555Z,3.20
2019-01-14T03:31:26.318Z,3.80
2019-01-14T03:33:56.894Z,3.30
2019-01-14T03:36:27.632Z,2.13
2019-01-14T03:38:58.382Z,3.60
2019-01-14T03:41:30.268Z,2.23
2019-01-14T03:44:01.954Z,9.47
2019-01-14T03:46:32.682Z,4.53
2019-01-14T03:49:03.448Z,4.23
2019-01-14T03:51:34.404Z,2.93
2019-01-14T03:54:05.032Z,3.63
2019-01-14T03:56:35.638Z,3.97
2019-01-14T03:59:06.365Z,4.73
2019-01-14T04:01:37.095Z,6.23
2019-01-14T04:04:07.725Z,3.60
2019-01-14T04:06:38.581Z,6.57
2019-01-14T04:09:09.386Z,6.77
2019-01-14T04:11:40.290Z,7.00
2019-01-14T04:14:11.006Z,4.57
2019-01-14T04:16:41.546Z,7.70
2019-01-14T04:19:12.393Z,8.10
2019-01-14T04:21:42.885Z,7.37
2019-01-14T04:24:13.542Z,7.93
2019-01-14T04:26:44.109Z,9.20
2019-01-14T04:29:14.631Z,7.37
2019-01-14T04:31:45.539Z,5.77
2019-01-14T04:34:16.384Z,5.17
2019-01-14T04:36:48.539Z,6.30
2019-01-14T04:39:19.385Z,5.27
2019-01-14T04:41:50.010Z,5.43
2019-01-14T04:44:20.740Z,5.93
2019-01-14T04:46:51.401Z,8.03
2019-01-14T04:49:22.012Z,4.13
2019-01-14T04:51:52.708Z,8.23
2019-01-14T04:54:23.399Z,6.37
2019-01-14T04:56:53.988Z,6.60
2019-01-14T04:59:24.562Z,5.43
2019-01-14T05:01:55.076Z,7.50
2019-01-14T05:04:25.502Z,7.33
2019-01-14T05:06:56.138Z,9.90
2019-01-14T05:09:27.303Z,12.03
2019-01-14T05:11:58.200Z,8.13
2019-01-14T05:14:28.892Z,7.33
2019-01-14T05:16:59.668Z,7.93
2019-01-14T05:19:30.324Z,7.37
2019-01-14T05:22:01.046Z,7.93
2019-01-14T05:24:32.032Z,9.27
2019-01-14T05:27:02.736Z,4.93
2019-01-14T05:29:33.545Z,6.07
2019-01-14T05:32:04.998Z,9.43
2019-01-14T05:34:36.584Z,9.87
2019-01-14T05:37:07.430Z,6.77
2019-01-14T05:39:38.359Z,6.20
2019-01-14T05:42:09.051Z,11.43
2019-01-14T05:44:39.729Z,7.90
2019-01-14T05:47:10.451Z,10.80
2019-01-14T05:49:41.136Z,11.13
2019-01-14T05:52:11.719Z,11.73
2019-01-14T05:54:42.459Z,12.17
2019-01-14T05:57:13.359Z,12.57
2019-01-14T05:59:44.091Z,7.37
2019-01-14T06:02:14.680Z,10.67
2019-01-14T06:04:45.601Z,10.83
2019-01-14T06:07:17.125Z,9.27
2019-01-14T06:09:48.820Z,10.30
2019-01-14T06:12:19.558Z,9.60
2019-01-14T06:14:50.518Z,6.13
2019-01-14T06:17:21.281Z,8.10
2019-01-14T06:19:51.991Z,12.30
2019-01-14T06:22:22.563Z,8.87
2019-01-14T06:24:53.219Z,8.37
2019-01-14T06:27:23.757Z,7.87
2019-01-14T06:29:54.358Z,9.10
2019-01-14T06:32:25.342Z,7.27
2019-01-14T06:34:55.792Z,7.00
2019-01-14T06:37:26.828Z,5.83
2019-01-14T06:39:57.512Z,10.00
2019-01-14T06:42:28.324Z,8.40
2019-01-14T06:44:58.957Z,7.30
2019-01-14T06:47:29.464Z,13.20
2019-01-14T06:49:59.899Z,6.80
2019-01-14T06:52:32.089Z,7.70
2019-01-14T06:55:02.552Z,13.00
2019-01-14T06:57:33.317Z,13.95
2019-01-14T07:00:05.444Z,8.93
2019-01-14T07:02:36.410Z,10.23
2019-01-14T07:05:07.776Z,8.70
2019-01-14T07:07:38.525Z,9.30
2019-01-14T07:10:11.707Z,8.03
2019-01-14T07:12:43.015Z,15.53
2019-01-14T07:15:14.199Z,15.90
2019-01-14T07:17:45.218Z,16.07
2019-01-14T07:20:16.728Z,7.27
2019-01-14T07:22:47.915Z,10.90
2019-01-14T07:25:19.066Z,9.90
2019-01-14T07:27:49.679Z,11.37
2019-01-14T07:30:21.727Z,8.77
2019-01-14T07:32:52.805Z,13.13
2019-01-14T07:35:23.748Z,10.63
2019-01-14T07:37:54.445Z,10.30
2019-01-14T07:40:25.491Z,11.83
2019-01-14T07:42:56.227Z,11.97
2019-01-14T07:45:27.122Z,13.33
2019-01-14T07:47:57.891Z,13.80
2019-01-14T07:50:28.637Z,14.40
2019-01-14T07:52:59.495Z,15.77
2019-01-14T07:55:30.496Z,13.43
2019-01-14T07:58:01.455Z,16.63
2019-01-14T08:00:32.160Z,15.13
2019-01-14T08:03:03.020Z,14.80
2019-01-14T08:05:33.820Z,22.00
2019-01-14T08:08:05.421Z,12.83
2019-01-14T08:10:36.246Z,10.70
2019-01-14T08:13:07.074Z,16.97
2019-01-14T08:15:37.751Z,14.80
2019-01-14T08:18:09.678Z,13.77
2019-01-14T08:20:40.390Z,9.93
2019-01-14T08:23:11.007Z,13.53
2019-01-14T08:25:41.654Z,8.40
2019-01-14T08:28:12.505Z,11.13
2019-01-14T08:30:43.392Z,13.73
2019-01-14T08:33:15.917Z,13.30
2019-01-14T08:35:46.744Z,14.63
2019-01-14T08:38:21.163Z,9.27
2019-01-14T08:40:49.544Z,7.03
2019-01-14T08:43:20.098Z,8.60
2019-01-14T08:45:50.717Z,9.73
2019-01-14T08:48:21.595Z,6.07
2019-01-14T08:50:52.219Z,10.00
2019-01-14T08:53:23.241Z,10.60
2019-01-14T08:55:53.837Z,8.63
2019-01-14T08:58:24.416Z,8.33
2019-01-14T09:00:55.166Z,7.87
2019-01-14T09:03:25.732Z,7.73
2019-01-14T09:05:56.280Z,6.40
2019-01-14T09:08:28.843Z,12.00
2019-01-14T09:10:59.455Z,9.67
2019-01-14T09:13:30.348Z,6.33
2019-01-14T09:16:01.122Z,7.57
2019-01-14T09:18:31.715Z,5.13
2019-01-14T09:21:02.411Z,9.17
2019-01-14T09:23:33.145Z,6.57
2019-01-14T09:26:03.884Z,6.67
2019-01-14T09:28:34.664Z,5.77
2019-01-14T09:31:06.393Z,7.40
2019-01-14T09:33:37.632Z,5.63
2019-01-14T09:36:08.252Z,11.33
2019-01-14T09:38:39.297Z,11.50
2019-01-14T09:41:09.909Z,11.83
2019-01-14T09:43:40.863Z,8.60
2019-01-14T09:46:11.713Z,7.93
2019-01-14T09:48:42.566Z,11.60
2019-01-14T09:51:13.313Z,9.27
2019-01-14T09:53:44.149Z,20.77
2019-01-14T09:56:14.738Z,20.67
2019-01-14T09:58:45.595Z,19.80
2019-01-14T10:01:17.457Z,15.00
2019-01-14T10:03:49.425Z,14.43
2019-01-14T10:06:19.920Z,8.27
2019-01-14T10:08:50.920Z,8.47
2019-01-14T10:11:21.847Z,11.93
2019-01-14T10:13:52.515Z,13.20
2019-01-14T10:16:23.325Z,13.70
2019-01-14T10:18:54.219Z,7.60
2019-01-14T10:21:25.018Z,11.20
2019-01-14T10:23:55.853Z,14.07
2019-01-14T10:26:27.541Z,10.57
2019-01-14T10:28:58.320Z,8.13
2019-01-14T10:31:28.953Z,7.43
2019-01-14T10:33:59.581Z,6.93
2019-01-14T10:36:30.500Z,10.50
2019-01-14T10:39:01.351Z,8.20
2019-01-14T10:41:32.928Z,4.93
2019-01-14T10:44:05.608Z,8.63
2019-01-14T10:46:36.930Z,9.00
2019-01-14T10:49:07.477Z,9.70
2019-01-14T10:51:38.228Z,7.10
2019-01-14T10:54:09.013Z,16.87
2019-01-14T10:56:44.083Z,8.97
2019-01-14T10:59:14.936Z,12.77
2019-01-14T11:01:45.507Z,10.57
2019-01-14T11:04:16.292Z,5.87
2019-01-14T11:06:46.943Z,10.27
2019-01-14T11:09:17.960Z,7.70
2019-01-14T11:11:48.483Z,6.87
2019-01-14T11:14:19.423Z,10.83
2019-01-14T11:16:50.137Z,7.53
2019-01-14T11:19:21.453Z,9.03
2019-01-14T11:21:52.039Z,10.97
2019-01-14T11:24:22.775Z,12.77
2019-01-14T11:26:53.251Z,6.07
2019-01-14T11:29:24.615Z,6.27
2019-01-14T11:31:55.137Z,10.80
2019-01-14T11:34:25.800Z,8.13
2019-01-14T11:36:56.483Z,10.03
2019-01-14T11:39:27.315Z,7.00
2019-01-14T11:41:58.488Z,10.17
2019-01-14T11:44:29.553Z,10.87
2019-01-14T11:47:00.567Z,8.37
2019-01-14T11:49:31.297Z,8.03
2019-01-14T11:52:02.441Z,10.67
2019-01-14T11:54:33.192Z,10.40
2019-01-14T11:57:04.028Z,9.63
2019-01-14T11:59:34.879Z,4.87
2019-01-14T12:02:06.032Z,16.10
2019-01-14T12:04:36.662Z,10.20
2019-01-14T12:07:07.515Z,11.23
2019-01-14T12:09:38.213Z,11.10
2019-01-14T12:12:10.682Z,16.10
2019-01-14T12:14:41.371Z,14.63
2019-01-14T12:17:12.372Z,11.40
2019-01-14T12:19:44.250Z,8.80
2019-01-14T12:22:14.792Z,8.97
2019-01-14T12:24:45.462Z,16.47
2019-01-14T12:27:15.994Z,13.67
2019-01-14T12:29:46.649Z,6.83
2019-01-14T12:32:17.145Z,7.57
2019-01-14T12:34:47.788Z,9.07
2019-01-14T12:37:18.517Z,7.90
2019-01-14T12:39:49.349Z,5.17
2019-01-14T12:42:20.241Z,11.30
2019-01-14T12:44:51.114Z,8.40
2019-01-14T12:47:21.635Z,10.37
2019-01-14T12:49:52.553Z,8.13
2019-01-14T12:52:24.033Z,10.03
2019-01-14T12:54:54.723Z,10.93
2019-01-14T12:57:25.491Z,15.27
2019-01-14T12:59:56.258Z,8.33
2019-01-14T13:02:27.499Z,7.33
2019-01-14T13:04:58.333Z,8.03
2019-01-14T13:07:29.203Z,6.67
2019-01-14T13:09:59.837Z,10.97
2019-01-14T13:12:30.679Z,8.50
2019-01-14T13:15:01.882Z,10.43
2019-01-14T13:17:33.773Z,15.73
2019-01-14T13:20:06.128Z,8.73
2019-01-14T13:22:37.343Z,8.00
2019-01-14T13:25:08.702Z,8.17
2019-01-14T13:27:39.905Z,10.10
2019-01-14T13:30:19.772Z,9.93
2019-01-14T13:32:50.790Z,12.60
2019-01-14T13:35:21.659Z,7.13
2019-01-14T13:37:52.918Z,11.13
2019-01-14T13:40:23.821Z,13.83
2019-01-14T13:42:56.171Z,7.60
2019-01-14T13:45:27.252Z,6.60
2019-01-14T13:47:58.199Z,7.20
2019-01-14T13:50:29.082Z,11.57
2019-01-14T13:52:59.845Z,7.43
2019-01-14T13:55:30.469Z,7.53
2019-01-14T13:58:01.249Z,6.43
2019-01-14T14:00:32.029Z,10.33
2019-01-14T14:03:03.196Z,10.13
2019-01-14T14:05:33.634Z,6.63
2019-01-14T14:08:04.674Z,11.40
2019-01-14T14:10:35.478Z,10.63
2019-01-14T14:13:06.158Z,9.23
2019-01-14T14:15:37.000Z,9.50
2019-01-14T14:18:07.572Z,8.33
2019-01-14T14:20:38.611Z,12.07
2019-01-14T14:23:09.134Z,18.43
2019-01-14T14:25:39.953Z,18.83
2019-01-14T14:28:10.859Z,18.80
2019-01-14T14:30:41.685Z,17.03
2019-01-14T14:33:12.645Z,11.80
2019-01-14T14:35:43.087Z,10.63
2019-01-14T14:38:13.816Z,13.07
2019-01-14T14:40:44.312Z,7.90
2019-01-14T14:43:15.082Z,1.87
2019-01-14T14:45:45.615Z,5.07
2019-01-14T14:48:16.413Z,9.47
2019-01-14T14:50:46.960Z,8.13
2019-01-14T14:53:17.843Z,11.97
2019-01-14T14:55:48.476Z,6.50
2019-01-14T14:58:19.160Z,4.93
2019-01-14T15:00:49.885Z,11.97
2019-01-14T15:03:20.710Z,7.87
2019-01-14T15:05:51.357Z,8.80
2019-01-14T15:08:22.256Z,7.87
2019-01-14T15:10:52.754Z,16.57
2019-01-14T15:13:23.995Z,14.27
2019-01-14T15:15:54.695Z,10.93
2019-01-14T15:18:25.529Z,11.53
2019-01-14T15:20:56.641Z,19.10
2019-01-14T15:23:27.220Z,16.30
2019-01-14T15:25:58.127Z,10.57
2019-01-14T15:28:29.342Z,17.00
2019-01-14T15:31:00.081Z,19.63
2019-01-14T15:33:30.878Z,13.10
2019-01-14T15:36:01.901Z,14.23
2019-01-14T15:38:32.389Z,15.53
2019-01-14T15:41:03.106Z,7.10
2019-01-14T15:43:33.961Z,11.40
2019-01-14T15:46:04.744Z,9.33
2019-01-14T15:48:35.677Z,10.33
2019-01-14T15:51:06.232Z,12.10
2019-01-14T15:53:37.005Z,2.60
2019-01-14T15:56:07.594Z,5.27
2019-01-14T15:58:38.420Z,11.80
2019-01-14T16:01:09.171Z,7.87
2019-01-14T16:03:39.895Z,8.27
2019-01-14T16:06:10.793Z,6.43
2019-01-14T16:08:41.220Z,8.10
2019-01-14T16:11:11.826Z,8.73
2019-01-14T16:13:42.530Z,6.73
2019-01-14T16:16:13.156Z,6.80
2019-01-14T16:18:44.109Z,8.50
2019-01-14T16:21:14.579Z,8.47
2019-01-14T16:23:45.097Z,10.17
2019-01-14T16:26:16.042Z,15.43
2019-01-14T16:28:46.692Z,10.97
2019-01-14T16:31:17.569Z,16.60
2019-01-14T16:33:48.327Z,8.37
2019-01-14T16:36:19.825Z,15.40
2019-01-14T16:38:50.291Z,8.90
2019-01-14T16:41:20.782Z,7.43
2019-01-14T16:43:51.460Z,12.07
2019-01-14T16:46:22.051Z,11.17
2019-01-14T16:48:53.092Z,12.07
2019-01-14T16:51:23.745Z,10.93
2019-01-14T16:53:54.602Z,15.83
2019-01-14T16:56:26.446Z,11.77
2019-01-14T16:58:59.903Z,12.80
2019-01-14T17:01:31.700Z,15.90
2019-01-14T17:04:02.354Z,19.07
2019-01-14T17:06:33.002Z,17.00
2019-01-14T17:09:06.090Z,11.37
2019-01-14T17:11:37.293Z,15.23
2019-01-14T17:14:08.896Z,18.10
2019-01-14T17:16:39.802Z,20.57
2019-01-14T17:19:11.664Z,21.77
2019-01-14T17:21:42.237Z,23.73
2019-01-14T17:24:13.163Z,22.20
2019-01-14T17:26:43.767Z,22.03
2019-01-14T17:29:15.396Z,16.17
2019-01-14T17:31:46.404Z,13.93
2019-01-14T17:34:17.421Z,18.83
2019-01-14T17:36:48.025Z,12.33
2019-01-14T17:39:18.952Z,5.20
2019-01-14T17:41:51.081Z,11.70
2019-01-14T17:44:21.748Z,8.57
2019-01-14T17:46:52.219Z,12.73
2019-01-14T17:49:23.840Z,10.53
2019-01-14T17:51:55.669Z,15.07
2019-01-14T17:54:26.377Z,8.87
2019-01-14T17:56:57.448Z,14.23
2019-01-14T17:59:28.211Z,13.83
2019-01-14T18:01:59.015Z,13.57
2019-01-14T18:04:29.890Z,14.53
2019-01-14T18:07:00.910Z,11.53
2019-01-14T18:09:31.976Z,7.97
2019-01-14T18:12:02.718Z,12.70
2019-01-14T18:14:33.423Z,10.43
2019-01-14T18:17:04.564Z,14.80
2019-01-14T18:19:35.349Z,11.07
2019-01-14T18:22:06.288Z,10.50
2019-01-14T18:24:36.997Z,13.08
2019-01-14T18:27:09.569Z,11.70
2019-01-14T18:29:40.655Z,9.27
2019-01-14T18:32:12.259Z,14.97
2019-01-14T18:34:43.520Z,11.50
2019-01-14T18:37:14.499Z,17.83
2019-01-14T18:39:45.543Z,11.97
2019-01-14T18:42:16.255Z,13.73
2019-01-14T18:44:47.013Z,14.13
2019-01-14T18:47:17.933Z,13.23
2019-01-14T18:49:49.049Z,13.37
2019-01-14T18:52:19.977Z,14.93
2019-01-14T18:54:51.009Z,13.00
2019-01-14T18:57:21.811Z,16.47
2019-01-14T18:59:52.681Z,11.20
2019-01-14T19:02:23.259Z,14.77
2019-01-14T19:04:54.520Z,14.83
2019-01-14T19:07:25.595Z,15.77
2019-01-14T19:09:56.235Z,17.63
2019-01-14T19:12:26.990Z,20.87
2019-01-14T19:14:58.414Z,24.33
2019-01-14T19:17:29.320Z,19.43
2019-01-14T19:20:00.230Z,15.57
2019-01-14T19:22:31.204Z,20.60
2019-01-14T19:25:02.128Z,20.43
2019-01-14T19:27:33.083Z,19.17
2019-01-14T19:30:04.137Z,19.77
2019-01-14T19:32:38.606Z,18.33
2019-01-14T19:35:07.761Z,19.97
2019-01-14T19:37:39.794Z,18.20
2019-01-14T19:40:13.540Z,19.60
2019-01-14T19:42:44.329Z,13.87
2019-01-14T19:45:16.255Z,13.63
2019-01-14T19:47:47.266Z,25.03
2019-01-14T19:50:20.188Z,16.00
2019-01-14T19:52:54.494Z,14.47
2019-01-14T19:55:25.389Z,15.77
2019-01-14T19:57:57.596Z,10.33
2019-01-14T20:00:30.389Z,15.57
2019-01-14T20:03:02.499Z,18.40
2019-01-14T20:05:33.649Z,13.67
2019-01-14T20:08:05.325Z,13.60
2019-01-14T20:10:36.553Z,19.93
2019-01-14T20:13:07.763Z,14.23
2019-01-14T20:15:39.364Z,17.47
2019-01-14T20:18:11.545Z,17.17
2019-01-14T20:20:42.104Z,13.63
2019-01-14T20:23:13.788Z,12.63
2019-01-14T20:25:44.508Z,16.40
2019-01-14T20:28:15.285Z,16.70
2019-01-14T20:30:45.839Z,15.90
2019-01-14T20:33:19.548Z,13.97
2019-01-14T20:35:48.888Z,16.83
2019-01-14T20:38:19.592Z,17.53
2019-01-14T20:40:50.242Z,17.17
2019-01-14T20:43:21.059Z,21.57
2019-01-14T20:45:51.537Z,13.70
2019-01-14T20:48:22.591Z,20.17
2019-01-14T20:50:53.177Z,12.73
2019-01-14T20:53:24.168Z,19.13
2019-01-14T20:55:54.882Z,18.00
2019-01-14T20:58:25.758Z,13.63
2019-01-14T21:00:56.233Z,23.50
2019-01-14T21:03:27.309Z,15.73
2019-01-14T21:05:58.274Z,20.17
2019-01-14T21:08:29.199Z,17.57
2019-01-14T21:10:59.992Z,14.77
2019-01-14T21:13:30.599Z,18.10
2019-01-14T21:16:02.937Z,29.90
2019-01-14T21:18:34.833Z,18.47
2019-01-14T21:21:05.576Z,15.73
2019-01-14T21:23:36.176Z,18.70
2019-01-14T21:26:07.161Z,15.60
2019-01-14T21:28:38.282Z,17.17
2019-01-14T21:31:09.061Z,20.60
2019-01-14T21:33:41.370Z,26.90
2019-01-14T21:36:11.983Z,20.50
2019-01-14T21:38:42.958Z,22.33
2019-01-14T21:41:15.681Z,20.90
2019-01-14T21:43:46.269Z,22.53
2019-01-14T21:46:17.137Z,20.70
2019-01-14T21:48:47.875Z,22.47
2019-01-14T21:51:18.598Z,29.67
2019-01-14T21:53:49.177Z,19.77
2019-01-14T21:56:19.979Z,18.60
2019-01-14T21:58:50.527Z,22.97
2019-01-14T22:01:21.473Z,24.00
2019-01-14T22:03:52.067Z,26.20
2019-01-14T22:06:22.812Z,24.40
2019-01-14T22:08:53.732Z,20.53
2019-01-14T22:11:26.759Z,20.80
2019-01-14T22:13:57.775Z,29.10
2019-01-14T22:16:28.614Z,24.20
2019-01-14T22:18:59.682Z,25.20
2019-01-14T22:21:31.105Z,25.43
2019-01-14T22:24:01.553Z,23.97
2019-01-14T22:26:32.278Z,21.63
2019-01-14T22:29:02.974Z,20.27
2019-01-14T22:31:34.816Z,22.10
2019-01-14T22:34:05.704Z,27.63
2019-01-14T22:36:36.346Z,23.57
2019-01-14T22:39:08.409Z,29.77
2019-01-14T22:41:45.748Z,25.90
2019-01-14T22:44:12.726Z,25.73
2019-01-14T22:46:43.576Z,30.60
2019-01-14T22:49:14.177Z,28.27
2019-01-14T22:51:45.838Z,22.53
2019-01-14T22:54:16.925Z,24.67
2019-01-14T22:56:47.484Z,24.70
2019-01-14T22:59:18.054Z,19.00
2019-01-14T23:01:50.849Z,23.97
2019-01-14T23:04:21.949Z,24.17
2019-01-14T23:06:52.704Z,27.23
2019-01-14T23:09:23.268Z,23.43
2019-01-14T23:11:53.773Z,26.73
2019-01-14T23:14:24.999Z,18.50
2019-01-14T23:16:55.914Z,24.23
2019-01-14T23:19:28.233Z,18.13
2019-01-14T23:21:58.706Z,22.80
2019-01-14T23:24:29.667Z,27.17
2019-01-14T23:27:00.374Z,23.17
2019-01-14T23:29:31.180Z,24.67
2019-01-14T23:32:01.995Z,16.70
2019-01-14T23:34:32.941Z,17.23
2019-01-14T23:37:03.748Z,38.37
2019-01-14T23:39:34.300Z,25.13
2019-01-14T23:42:05.423Z,20.60
2019-01-14T23:44:36.526Z,25.97
2019-01-14T23:47:07.322Z,27.00
2019-01-14T23:49:38.601Z,29.70
2019-01-14T23:52:09.433Z,25.50
2019-01-14T23:54:39.946Z,25.53
2019-01-14T23:57:10.450Z,19.43
2019-01-14T23:59:41.224Z,27.87
